Time;durP1;ratioP1;P1;durP2;ratioP2;P2;SDS_P1;SDS_P2;PMS_P1;PMS_P2;Temp;Humidity;BMP_temperature;BMP_pressure;BME280_temperature;BME280_humidity;BME280_pressure;Samples;Min_cycle;Max_cycle;Signal;HPM_P1;HPM_P2
2022/06/21 00:02:03;;;;;;;2.45;2.25;;;;;;;;;;5057699;28;20457;-72
2022/06/21 00:04:28;;;;;;;3.25;2.10;;;;;;;;;;5075655;28;20023;-71
2022/06/21 00:06:54;;;;;;;2.13;1.92;;;;;;;;;;5075302;28;20128;-73
2022/06/21 00:09:20;;;;;;;2.50;2.10;;;;;;;;;;5075365;28;20020;-74
2022/06/21 00:11:45;;;;;;;3.63;2.22;;;;;;;;;;5075098;28;20032;-72
2022/06/21 00:14:11;;;;;;;4.03;2.42;;;;;;;;;;5075751;28;20033;-73
2022/06/21 00:16:36;;;;;;;2.13;1.93;;;;;;;;;;5057220;28;20523;-76
2022/06/21 00:19:02;;;;;;;3.03;2.45;;;;;;;;;;5057346;28;20686;-74
2022/06/21 00:21:36;;;;;;;2.83;2.50;;;;;;;;;;5075129;28;20021;-73
2022/06/21 00:24:02;;;;;;;4.10;2.85;;;;;;;;;;5074844;28;20377;-74
2022/06/21 00:26:28;;;;;;;3.55;2.75;;;;;;;;;;5075070;28;20016;-73
2022/06/21 00:28:53;;;;;;;3.33;3.00;;;;;;;;;;5075036;28;20027;-73
2022/06/21 00:31:21;;;;;;;4.60;3.92;;;;;;;;;;5056721;28;20103;-73
2022/06/21 00:33:46;;;;;;;4.20;3.35;;;;;;;;;;5056830;28;20063;-72
2022/06/21 00:36:23;;;;;;;3.63;3.33;;;;;;;;;;5056650;28;20477;-73
2022/06/21 00:38:50;;;;;;;5.60;3.63;;;;;;;;;;5056971;28;20017;-73
2022/06/21 00:41:16;;;;;;;4.05;3.15;;;;;;;;;;5074769;28;20065;-73
2022/06/21 00:43:47;;;;;;;4.53;2.95;;;;;;;;;;5075158;28;20045;-74
2022/06/21 00:46:32;;;;;;;3.33;2.90;;;;;;;;;;5074858;28;20105;-74
2022/06/21 00:48:59;;;;;;;2.83;2.63;;;;;;;;;;5033282;28;20058;-72
2022/06/21 00:51:31;;;;;;;4.00;2.70;;;;;;;;;;5074853;28;20021;-72
2022/06/21 00:53:58;;;;;;;3.08;2.67;;;;;;;;;;5074604;28;20028;-72
2022/06/21 00:56:32;;;;;;;3.50;2.97;;;;;;;;;;5074406;28;20021;-72
2022/06/21 00:58:57;;;;;;;3.22;2.42;;;;;;;;;;5074527;28;20024;-72
2022/06/21 01:01:24;;;;;;;5.00;2.80;;;;;;;;;;5056497;28;20017;-74
2022/06/21 01:04:04;;;;;;;4.90;2.97;;;;;;;;;;5074364;28;20342;-71
2022/06/21 01:06:40;;;;;;;4.15;2.60;;;;;;;;;;5056428;28;20021;-72
2022/06/21 01:09:11;;;;;;;6.35;3.22;;;;;;;;;;5056371;28;20024;-72
2022/06/21 01:11:42;;;;;;;5.95;3.17;;;;;;;;;;5074305;28;20078;-71
2022/06/21 01:14:08;;;;;;;6.53;3.80;;;;;;;;;;5074103;28;20017;-73
2022/06/21 01:16:34;;;;;;;3.95;3.55;;;;;;;;;;5074092;28;20107;-72
2022/06/21 01:19:01;;;;;;;5.10;3.92;;;;;;;;;;5074242;28;20041;-72
2022/06/21 01:21:28;;;;;;;6.97;4.03;;;;;;;;;;5074188;28;20017;-72
2022/06/21 01:23:53;;;;;;;5.65;4.45;;;;;;;;;;5056088;28;20036;-72
2022/06/21 01:26:31;;;;;;;6.17;5.00;;;;;;;;;;5073966;28;20031;-72
2022/06/21 01:28:57;;;;;;;5.95;5.00;;;;;;;;;;5055954;28;20608;-73
2022/06/21 01:31:23;;;;;;;5.40;4.10;;;;;;;;;;5074108;28;20020;-72
2022/06/21 01:33:48;;;;;;;9.98;4.95;;;;;;;;;;5073904;28;20028;-72
2022/06/21 01:36:34;;;;;;;5.47;4.80;;;;;;;;;;5039269;28;20461;-72
2022/06/21 01:39:02;;;;;;;4.07;3.67;;;;;;;;;;5072926;28;20503;-72
2022/06/21 01:41:33;;;;;;;4.07;3.63;;;;;;;;;;5072769;28;20017;-71
2022/06/21 01:44:01;;;;;;;3.88;3.58;;;;;;;;;;5073671;28;20473;-71
2022/06/21 01:46:28;;;;;;;3.40;3.10;;;;;;;;;;5071531;28;20066;-73
2022/06/21 01:48:55;;;;;;;7.68;3.85;;;;;;;;;;5070928;28;20016;-72
2022/06/21 01:51:47;;;;;;;4.43;3.20;;;;;;;;;;5053471;28;20023;-73
2022/06/21 01:54:14;;;;;;;3.63;3.25;;;;;;;;;;5039624;28;20529;-72
2022/06/21 01:56:40;;;;;;;6.05;3.17;;;;;;;;;;5066984;28;20365;-72
2022/06/21 01:59:07;;;;;;;7.18;3.30;;;;;;;;;;5091552;28;20679;-73
2022/06/21 02:01:59;;;;;;;7.38;3.47;;;;;;;;;;5092370;28;20027;-72
2022/06/21 02:04:26;;;;;;;4.40;2.75;;;;;;;;;;5088551;28;20519;-72
2022/06/21 02:06:52;;;;;;;3.40;3.00;;;;;;;;;;5093651;28;20099;-71
2022/06/21 02:09:25;;;;;;;3.10;2.50;;;;;;;;;;5093660;28;20042;-72
2022/06/21 02:11:58;;;;;;;6.18;2.97;;;;;;;;;;5093689;28;20468;-71
2022/06/21 02:14:29;;;;;;;3.65;2.65;;;;;;;;;;5075360;28;20111;-71
2022/06/21 02:17:20;;;;;;;4.28;2.45;;;;;;;;;;5093412;28;20461;-72
2022/06/21 02:20:00;;;;;;;4.95;3.10;;;;;;;;;;5070417;28;20024;-72
2022/06/21 02:22:27;;;;;;;3.47;2.88;;;;;;;;;;5075338;28;20065;-72
2022/06/21 02:24:53;;;;;;;2.60;2.40;;;;;;;;;;5075152;28;20579;-72
2022/06/21 02:27:19;;;;;;;4.38;2.70;;;;;;;;;;5093385;28;20103;-72
2022/06/21 02:29:47;;;;;;;3.97;2.78;;;;;;;;;;5093290;28;20024;-72
2022/06/21 02:32:32;;;;;;;4.70;2.70;;;;;;;;;;5093394;28;20059;-72
2022/06/21 02:35:03;;;;;;;3.88;3.10;;;;;;;;;;5092414;28;20040;-72
2022/06/21 02:37:28;;;;;;;4.35;2.63;;;;;;;;;;5093167;28;20050;-72
2022/06/21 02:39:54;;;;;;;3.55;2.80;;;;;;;;;;5093473;28;20040;-71
2022/06/21 02:42:22;;;;;;;3.15;2.85;;;;;;;;;;5093287;28;20341;-71
2022/06/21 02:44:51;;;;;;;4.82;3.08;;;;;;;;;;5093257;28;20024;-72
2022/06/21 02:47:19;;;;;;;4.38;3.40;;;;;;;;;;5093301;28;20024;-72
2022/06/21 02:49:49;;;;;;;4.70;3.38;;;;;;;;;;5093186;28;20431;-72
2022/06/21 02:52:37;;;;;;;5.50;3.17;;;;;;;;;;5093430;28;20027;-71
2022/06/21 02:55:05;;;;;;;5.22;3.35;;;;;;;;;;5093380;28;20028;-71
2022/06/21 02:57:42;;;;;;;4.57;3.28;;;;;;;;;;5093009;28;20043;-72
2022/06/21 03:00:09;;;;;;;3.78;3.40;;;;;;;;;;5075421;28;20081;-72
2022/06/21 03:02:34;;;;;;;3.30;2.90;;;;;;;;;;5096921;28;20103;-72
2022/06/21 03:05:01;;;;;;;6.95;3.25;;;;;;;;;;5097213;28;20095;-71
2022/06/21 03:07:36;;;;;;;6.75;3.35;;;;;;;;;;5078709;28;20016;-72
2022/06/21 03:10:02;;;;;;;5.00;3.63;;;;;;;;;;5062053;28;20016;-71
2022/06/21 03:12:29;;;;;;;6.63;2.58;;;;;;;;;;5078645;28;20381;-70
2022/06/21 03:14:57;;;;;;;4.07;2.92;;;;;;;;;;5096698;28;20462;-72
2022/06/21 03:17:27;;;;;;;3.33;2.85;;;;;;;;;;5096659;28;20368;-72
2022/06/21 03:19:53;;;;;;;4.05;2.70;;;;;;;;;;5078539;28;20031;-72
2022/06/21 03:22:21;;;;;;;3.63;2.53;;;;;;;;;;5078505;28;20009;-71
2022/06/21 03:24:48;;;;;;;5.05;2.72;;;;;;;;;;5096618;28;20012;-72
2022/06/21 03:27:35;;;;;;;3.95;2.78;;;;;;;;;;5078337;28;20118;-71
2022/06/21 03:30:01;;;;;;;3.50;2.72;;;;;;;;;;5078306;28;20354;-71
2022/06/21 03:32:28;;;;;;;3.28;2.45;;;;;;;;;;5096411;28;20487;-71
2022/06/21 03:34:53;;;;;;;3.65;2.47;;;;;;;;;;5096503;28;20069;-71
2022/06/21 03:37:19;;;;;;;5.72;2.75;;;;;;;;;;5096390;28;20407;-70
2022/06/21 03:42:31;;;;;;;3.72;2.00;;;;;;;;;;5096585;28;20130;-71
2022/06/21 03:45:01;;;;;;;3.53;2.38;;;;;;;;;;5096263;28;20023;-71
2022/06/21 03:47:33;;;;;;;3.30;2.47;;;;;;;;;;5078274;28;20027;-72
2022/06/21 03:50:04;;;;;;;3.20;2.15;;;;;;;;;;5096283;28;20028;-71
2022/06/21 03:52:42;;;;;;;2.80;2.10;;;;;;;;;;5096018;28;20024;-72
2022/06/21 03:55:07;;;;;;;3.08;2.08;;;;;;;;;;5077773;28;20423;-70
2022/06/21 03:57:33;;;;;;;2.72;2.25;;;;;;;;;;5095962;28;20036;-71
2022/06/21 04:00:04;;;;;;;4.30;2.20;;;;;;;;;;5077755;28;20024;-70
2022/06/21 04:02:38;;;;;;;2.42;2.15;;;;;;;;;;5095889;28;20093;-71
2022/06/21 04:05:06;;;;;;;2.95;1.88;;;;;;;;;;5095760;28;20023;-70
2022/06/21 04:07:35;;;;;;;5.18;2.42;;;;;;;;;;5096165;28;20074;-71
2022/06/21 04:10:06;;;;;;;2.35;2.00;;;;;;;;;;5095892;28;20019;-71
2022/06/21 04:12:51;;;;;;;2.25;1.85;;;;;;;;;;5077011;28;20016;-72
2022/06/21 04:15:41;;;;;;;2.83;2.40;;;;;;;;;;5026978;28;20051;-71
2022/06/21 04:18:06;;;;;;;3.90;2.25;;;;;;;;;;5077836;28;20028;-71
2022/06/21 04:20:38;;;;;;;3.63;2.33;;;;;;;;;;5095582;28;20372;-70
2022/06/21 04:23:08;;;;;;;4.13;1.90;;;;;;;;;;5095623;28;20766;-70
2022/06/21 04:25:33;;;;;;;5.22;1.90;;;;;;;;;;5095118;28;20039;-70
2022/06/21 04:27:58;;;;;;;6.38;2.50;;;;;;;;;;5095128;28;20028;-70
2022/06/21 04:30:28;;;;;;;5.90;2.30;;;;;;;;;;5077166;28;20043;-70
2022/06/21 04:33:02;;;;;;;3.63;2.60;;;;;;;;;;5076994;28;20103;-70
2022/06/21 04:35:30;;;;;;;4.93;2.65;;;;;;;;;;5075604;28;20044;-71
2022/06/21 04:38:10;;;;;;;3.45;1.90;;;;;;;;;;5094849;28;20099;-70
2022/06/21 04:40:38;;;;;;;2.92;2.00;;;;;;;;;;5094130;28;20043;-69
2022/06/21 04:43:09;;;;;;;1.98;1.70;;;;;;;;;;5094855;28;20028;-70
2022/06/21 04:45:50;;;;;;;2.53;2.25;;;;;;;;;;5076718;28;20016;-70
2022/06/21 04:48:18;;;;;;;2.60;2.30;;;;;;;;;;5095335;28;20024;-76
2022/06/21 04:50:47;;;;;;;2.88;2.10;;;;;;;;;;5093375;28;20119;-76
2022/06/21 04:53:16;;;;;;;2.10;1.95;;;;;;;;;;5094710;28;20032;-77
2022/06/21 04:56:00;;;;;;;3.53;1.75;;;;;;;;;;5094764;28;20020;-77
2022/06/21 04:58:25;;;;;;;3.15;1.70;;;;;;;;;;5094035;28;20107;-76
2022/06/21 05:00:51;;;;;;;2.58;2.38;;;;;;;;;;5094219;28;20096;-76
2022/06/21 05:03:29;;;;;;;1.92;1.77;;;;;;;;;;5095023;28;20078;-78
2022/06/21 05:05:54;;;;;;;6.22;2.40;;;;;;;;;;5094451;28;20484;-76
2022/06/21 05:08:22;;;;;;;3.58;1.55;;;;;;;;;;5094581;28;20020;-75
2022/06/21 05:10:50;;;;;;;3.95;1.60;;;;;;;;;;5094062;28;20046;-75
2022/06/21 05:13:20;;;;;;;2.05;1.85;;;;;;;;;;5052851;28;20489;-76
2022/06/21 05:15:46;;;;;;;1.75;1.65;;;;;;;;;;5053807;28;20060;-77
2022/06/21 05:18:14;;;;;;;2.30;1.70;;;;;;;;;;5054015;28;20110;-75
2022/06/21 05:20:46;;;;;;;3.75;1.90;;;;;;;;;;5053989;28;20048;-77
2022/06/21 05:23:12;;;;;;;2.95;1.90;;;;;;;;;;5053106;28;20462;-77
2022/06/21 05:25:41;;;;;;;2.10;1.90;;;;;;;;;;5082327;28;20028;-76
2022/06/21 05:28:10;;;;;;;3.60;2.22;;;;;;;;;;5093832;28;20030;-76
2022/06/21 05:30:54;;;;;;;2.45;1.80;;;;;;;;;;5093966;28;20024;-76
2022/06/21 05:33:39;;;;;;;2.90;2.55;;;;;;;;;;5094183;28;20070;-77
2022/06/21 05:36:08;;;;;;;1.88;1.73;;;;;;;;;;5075559;28;20035;-77
2022/06/21 05:38:35;;;;;;;5.65;1.65;;;;;;;;;;5093765;28;20103;-78
2022/06/21 05:41:29;;;;;;;2.75;1.90;;;;;;;;;;5094097;28;20077;-78
2022/06/21 05:43:57;;;;;;;3.28;2.20;;;;;;;;;;5093776;28;20023;-76
2022/06/21 05:46:25;;;;;;;2.65;1.98;;;;;;;;;;5093930;28;20391;-76
2022/06/21 05:48:52;;;;;;;2.55;1.70;;;;;;;;;;5075451;28;20028;-79
2022/06/21 05:51:21;;;;;;;2.53;1.58;;;;;;;;;;5093609;28;20085;-75
2022/06/21 05:53:47;;;;;;;1.63;1.52;;;;;;;;;;5093816;28;20094;-76
2022/06/21 05:56:14;;;;;;;2.15;1.65;;;;;;;;;;5093382;28;20484;-76
2022/06/21 05:58:46;;;;;;;2.78;1.20;;;;;;;;;;5075392;28;20032;-76
2022/06/21 06:01:30;;;;;;;1.73;1.38;;;;;;;;;;5075195;28;20024;-76
2022/06/21 06:03:58;;;;;;;1.90;1.30;;;;;;;;;;5093248;28;20020;-76
2022/06/21 06:06:25;;;;;;;2.17;1.48;;;;;;;;;;5093142;28;20368;-75
2022/06/21 06:08:57;;;;;;;2.10;1.42;;;;;;;;;;5093240;28;20381;-77
2022/06/21 06:11:24;;;;;;;2.85;1.20;;;;;;;;;;5093417;28;20024;-76
2022/06/21 06:13:51;;;;;;;3.28;1.20;;;;;;;;;;5075219;28;20377;-76
2022/06/21 06:16:19;;;;;;;1.30;1.17;;;;;;;;;;5093012;28;20020;-77
2022/06/21 06:18:51;;;;;;;3.03;1.35;;;;;;;;;;5075251;28;20020;-77
2022/06/21 06:21:16;;;;;;;3.65;1.38;;;;;;;;;;5093426;28;20026;-75
2022/06/21 06:23:43;;;;;;;1.38;1.27;;;;;;;;;;5084055;28;20024;-78
2022/06/21 06:26:12;;;;;;;2.35;1.40;;;;;;;;;;5073454;28;20017;-78
2022/06/21 06:28:46;;;;;;;1.63;1.13;;;;;;;;;;5072636;28;20016;-76
2022/06/21 06:31:18;;;;;;;2.20;1.10;;;;;;;;;;5072944;28;20035;-76
2022/06/21 06:33:47;;;;;;;1.38;1.20;;;;;;;;;;5072483;28;20066;-76
2022/06/21 06:36:16;;;;;;;3.42;1.38;;;;;;;;;;5058093;28;20027;-76
2022/06/21 06:38:41;;;;;;;1.70;1.08;;;;;;;;;;5074838;28;20476;-79
2022/06/21 06:41:10;;;;;;;2.60;1.90;;;;;;;;;;5076922;28;20476;-74
2022/06/21 06:43:41;;;;;;;1.77;1.20;;;;;;;;;;5076960;28;20017;-74
2022/06/21 06:46:06;;;;;;;;;;;;;;;;;;5077506;28;20099;-74
2022/06/21 06:48:36;;;;;;;1.70;1.10;;;;;;;;;;5076928;28;19997;-74
2022/06/21 06:51:24;;;;;;;1.38;1.20;;;;;;;;;;5076650;28;20023;-74
2022/06/21 06:53:53;;;;;;;4.88;1.40;;;;;;;;;;5076017;28;20457;-74
2022/06/21 06:56:21;;;;;;;3.13;2.05;;;;;;;;;;5076617;28;20019;-76
2022/06/21 06:58:50;;;;;;;1.73;1.20;;;;;;;;;;5076623;28;20043;-75
2022/06/21 07:01:20;;;;;;;0.82;0.82;;;;;;;;;;5077026;28;20029;-73
2022/06/21 07:03:48;;;;;;;4.13;1.40;;;;;;;;;;5076425;28;20070;-77
2022/06/21 07:06:33;;;;;;;1.88;1.10;;;;;;;;;;5076426;28;20028;-76
2022/06/21 07:09:01;;;;;;;1.30;1.17;;;;;;;;;;5076614;28;20016;-76
2022/06/21 07:11:26;;;;;;;1.00;0.98;;;;;;;;;;5076568;28;20412;-78
2022/06/21 07:13:52;;;;;;;1.30;1.17;;;;;;;;;;5076392;28;20469;-77
2022/06/21 07:16:19;;;;;;;3.95;1.13;;;;;;;;;;5075897;28;20346;-75
2022/06/21 07:18:49;;;;;;;0.90;0.90;;;;;;;;;;5075969;28;20022;-76
2022/06/21 07:21:15;;;;;;;1.17;1.02;;;;;;;;;;5079996;28;20022;-75
2022/06/21 07:23:40;;;;;;;2.28;0.95;;;;;;;;;;5096438;28;20084;-76
2022/06/21 07:26:06;;;;;;;3.17;1.05;;;;;;;;;;5095974;28;20031;-76
2022/06/21 07:28:38;;;;;;;1.30;1.20;;;;;;;;;;5077971;28;20132;-78
2022/06/21 07:31:15;;;;;;;1.95;1.23;;;;;;;;;;5078039;28;20330;-78
2022/06/21 07:33:47;;;;;;;1.27;1.10;;;;;;;;;;5096545;28;20111;-76
2022/06/21 07:36:18;;;;;;;3.65;1.38;;;;;;;;;;5096444;28;20046;-75
2022/06/21 07:38:59;;;;;;;3.85;0.95;;;;;;;;;;5096219;28;20051;-75
2022/06/21 07:41:30;;;;;;;2.83;1.10;;;;;;;;;;5095756;28;20115;-78
2022/06/21 07:43:57;;;;;;;1.52;1.15;;;;;;;;;;5084557;28;20043;-73
2022/06/21 07:46:32;;;;;;;4.40;1.40;;;;;;;;;;5074145;28;20041;-75
2022/06/21 07:49:12;;;;;;;2.42;0.90;;;;;;;;;;5063453;28;20021;-79
2022/06/21 07:51:40;;;;;;;3.60;1.55;;;;;;;;;;5061378;28;20051;-80
2022/06/21 07:54:24;;;;;;;6.13;1.23;;;;;;;;;;5075461;28;20052;-78
2022/06/21 07:56:57;;;;;;;3.58;1.20;;;;;;;;;;5073902;28;20085;-75
2022/06/21 07:59:32;;;;;;;1.27;0.90;;;;;;;;;;5074782;28;20504;-75
2022/06/21 08:08:01;;;;;;;1.10;0.80;;;;;;;;;;5077788;28;20162;-76
2022/06/21 08:10:44;;;;;;;0.88;0.75;;;;;;;;;;5056318;28;20097;-77
2022/06/21 08:13:10;;;;;;;2.67;1.55;;;;;;;;;;5075079;28;20109;-77
2022/06/21 08:15:49;;;;;;;1.25;0.82;;;;;;;;;;5056851;28;20056;-78
2022/06/21 08:18:26;;;;;;;1.85;1.15;;;;;;;;;;5075015;28;20016;-79
2022/06/21 08:21:01;;;;;;;1.10;0.70;;;;;;;;;;5074810;28;20052;-73
2022/06/21 08:23:46;;;;;;;3.88;1.10;;;;;;;;;;5075107;28;20012;-73
2022/06/21 08:26:21;;;;;;;0.95;0.80;;;;;;;;;;5059405;28;20040;-75
2022/06/21 08:28:52;;;;;;;3.17;0.93;;;;;;;;;;5074405;28;20028;-77
2022/06/21 08:31:34;;;;;;;2.17;0.90;;;;;;;;;;5074134;28;20085;-75
2022/06/21 08:34:10;;;;;;;1.60;1.38;;;;;;;;;;5074547;28;20021;-78
2022/06/21 08:36:38;;;;;;;3.38;1.20;;;;;;;;;;5074808;28;20036;-82
2022/06/21 08:39:13;;;;;;;3.13;1.65;;;;;;;;;;5074288;28;20020;-79
2022/06/21 08:41:54;;;;;;;2.30;0.73;;;;;;;;;;5072125;28;20078;-73
2022/06/21 08:44:29;;;;;;;1.17;1.08;;;;;;;;;;5072518;28;20024;-75
2022/06/21 08:46:57;;;;;;;1.50;0.60;;;;;;;;;;5072713;28;20031;-74
2022/06/21 08:49:51;;;;;;;2.50;1.10;;;;;;;;;;5072972;28;20020;-75
2022/06/21 08:52:24;;;;;;;1.30;0.88;;;;;;;;;;5002356;28;20030;-76
2022/06/21 08:55:07;;;;;;;1.23;1.00;;;;;;;;;;5074259;28;20020;-77
2022/06/21 08:57:37;;;;;;;3.45;0.85;;;;;;;;;;5039323;28;20048;-77
2022/06/21 09:00:11;;;;;;;8.80;1.00;;;;;;;;;;5074049;28;20027;-75
2022/06/21 09:02:44;;;;;;;1.25;0.85;;;;;;;;;;5074062;28;20020;-74
2022/06/21 09:05:30;;;;;;;2.72;1.08;;;;;;;;;;5074039;28;20031;-78
2022/06/21 09:08:02;;;;;;;1.05;0.80;;;;;;;;;;5032683;28;20029;-76
2022/06/21 09:10:28;;;;;;;2.05;1.15;;;;;;;;;;5073348;28;20051;-78
2022/06/21 09:13:13;;;;;;;2.67;1.00;;;;;;;;;;5090885;28;20070;-72
2022/06/21 09:15:56;;;;;;;0.82;0.60;;;;;;;;;;5093930;28;20020;-75
2022/06/21 09:18:27;;;;;;;2.78;0.90;;;;;;;;;;5094165;28;20016;-74
2022/06/21 09:20:53;;;;;;;;;;;;;;;;;;5094469;28;20023;-76
2022/06/21 11:28:24;;;;;;;1.58;1.27;;;;;;;;;;4237729;28;20056;-78
2022/06/21 11:31:07;;;;;;;3.47;1.13;;;;;;;;;;5063439;28;20033;-74
2022/06/21 11:33:36;;;;;;;14.55;1.98;;;;;;;;;;5040956;28;20025;-75
2022/06/21 11:36:07;;;;;;;3.33;1.05;;;;;;;;;;5043534;28;20469;-77
2022/06/21 11:38:35;;;;;;;;;;;;;;;;;;5056915;28;20033;-77
2022/06/21 11:42:04;;;;;;;1.90;0.77;;;;;;;;;;5049488;28;19963;-78
2022/06/21 11:44:12;;;;;;;3.60;1.60;;;;;;;;;;5050729;28;20091;-75
2022/06/21 11:46:45;;;;;;;5.30;1.58;;;;;;;;;;5031048;28;20025;-78
2022/06/21 11:49:16;;;;;;;2.22;1.38;;;;;;;;;;5046858;28;20489;-77
2022/06/21 11:51:44;;;;;;;6.35;1.38;;;;;;;;;;5043650;28;20064;-78
2022/06/21 11:54:11;;;;;;;2.70;0.90;;;;;;;;;;5051453;28;20037;-79
2022/06/21 11:56:39;;;;;;;0.73;0.73;;;;;;;;;;5070763;28;20456;-79
2022/06/21 11:59:23;;;;;;;3.15;1.40;;;;;;;;;;5067028;28;20043;-81
2022/06/21 12:01:51;;;;;;;2.40;1.30;;;;;;;;;;5057488;28;20021;-79
2022/06/21 12:04:38;;;;;;;1.65;0.60;;;;;;;;;;5055778;28;20029;-77
2022/06/21 12:07:16;;;;;;;5.05;0.93;;;;;;;;;;5055245;28;20021;-76
2022/06/21 12:09:59;;;;;;;2.60;1.63;;;;;;;;;;5056410;28;20063;-80
2022/06/21 12:12:25;;;;;;;2.95;1.23;;;;;;;;;;5036920;28;20057;-77
2022/06/21 12:15:09;;;;;;;2.05;1.15;;;;;;;;;;5035814;28;20069;-79
2022/06/21 12:17:45;;;;;;;5.70;0.90;;;;;;;;;;5050507;28;20033;-78
2022/06/21 12:20:23;;;;;;;6.05;1.00;;;;;;;;;;5036905;28;20033;-79
2022/06/21 12:22:53;;;;;;;0.80;0.70;;;;;;;;;;5036927;28;20017;-78
2022/06/21 12:25:19;;;;;;;3.05;1.35;;;;;;;;;;5042864;28;20038;-78
2022/06/21 12:27:44;;;;;;;4.32;1.02;;;;;;;;;;5034096;28;20025;-78
2022/06/21 12:30:15;;;;;;;2.63;0.90;;;;;;;;;;5052391;28;20047;-78
2022/06/21 12:32:41;;;;;;;1.65;0.95;;;;;;;;;;5070838;28;20707;-81
2022/06/21 12:35:11;;;;;;;6.40;1.45;;;;;;;;;;5057199;28;20465;-76
2022/06/21 12:37:40;;;;;;;3.22;1.05;;;;;;;;;;5074708;28;20025;-77
2022/06/21 12:40:27;;;;;;;1.08;0.98;;;;;;;;;;5074535;28;20028;-75
2022/06/21 12:43:11;;;;;;;5.13;1.40;;;;;;;;;;5074197;28;20012;-77
2022/06/21 12:45:43;;;;;;;4.00;1.80;;;;;;;;;;5056878;28;20032;-79
2022/06/21 12:48:34;;;;;;;6.18;3.08;;;;;;;;;;5056421;28;20028;-79
2022/06/21 12:50:59;;;;;;;;;;;;;;;;;;5069893;28;20484;-78
2022/06/21 12:53:25;;;;;;;8.80;1.70;;;;;;;;;;5074209;28;19911;-76
2022/06/21 12:55:56;;;;;;;2.80;1.70;;;;;;;;;;5058115;28;20035;-78
2022/06/21 12:58:45;;;;;;;3.50;1.23;;;;;;;;;;5036626;28;20481;-79
2022/06/21 13:01:19;;;;;;;2.78;1.23;;;;;;;;;;5041173;28;20032;-78
2022/06/21 13:03:56;;;;;;;5.65;1.40;;;;;;;;;;5036389;28;20037;-78
2022/06/21 13:06:39;;;;;;;2.47;1.27;;;;;;;;;;5054171;28;20033;-82
2022/06/21 13:09:04;;;;;;;6.47;1.40;;;;;;;;;;5054907;28;20083;-79
2022/06/21 13:11:36;;;;;;;3.92;1.33;;;;;;;;;;5037060;28;20021;-80
2022/06/21 13:14:07;;;;;;;3.88;1.30;;;;;;;;;;5052181;28;20099;-75
2022/06/21 13:16:38;;;;;;;2.03;1.15;;;;;;;;;;5054166;28;20021;-74
2022/06/21 13:19:09;;;;;;;5.80;1.17;;;;;;;;;;5036211;28;20402;-75
2022/06/21 13:21:34;;;;;;;;;;;;;;;;;;5054849;28;20122;-73
2022/06/21 13:23:59;;;;;;;1.38;1.15;;;;;;;;;;5055263;28;19948;-77
2022/06/21 13:26:43;;;;;;;5.67;1.70;;;;;;;;;;5054701;28;20052;-76
2022/06/21 13:29:32;;;;;;;4.05;0.95;;;;;;;;;;5053835;28;20057;-74
2022/06/21 13:32:00;;;;;;;0.90;0.63;;;;;;;;;;5054985;28;20029;-77
2022/06/21 13:34:48;;;;;;;2.13;1.25;;;;;;;;;;5054370;28;20031;-77
2022/06/21 13:37:16;;;;;;;2.75;1.27;;;;;;;;;;5035863;28;20021;-78
2022/06/21 13:39:47;;;;;;;3.97;1.30;;;;;;;;;;5054198;28;20076;-74
2022/06/21 13:44:56;;;;;;;4.25;1.10;;;;;;;;;;5040328;28;20000;-77
2022/06/21 13:47:25;;;;;;;3.37;0.97;;;;;;;;;;5033711;28;20120;-76
2022/06/21 13:49:54;;;;;;;1.08;0.98;;;;;;;;;;5034010;28;20021;-76
2022/06/21 13:52:26;;;;;;;1.15;0.88;;;;;;;;;;5034000;28;20184;-75
2022/06/21 13:55:11;;;;;;;3.60;1.67;;;;;;;;;;5015929;28;20108;-78
2022/06/21 13:57:36;;;;;;;7.63;1.80;;;;;;;;;;5019497;28;20095;-76
2022/06/21 14:00:04;;;;;;;1.63;1.07;;;;;;;;;;5033639;28;20029;-75
2022/06/21 14:02:36;;;;;;;2.03;1.45;;;;;;;;;;5032488;28;20029;-78
2022/06/21 14:05:02;;;;;;;;;;;;;;;;;;5053608;28;20083;-80
2022/06/21 14:07:38;;;;;;;2.17;0.90;;;;;;;;;;5034565;28;19951;-79
2022/06/21 14:10:22;;;;;;;2.13;1.00;;;;;;;;;;5052368;28;20079;-77
2022/06/21 14:13:01;;;;;;;4.95;1.10;;;;;;;;;;5051944;28;20056;-77
2022/06/21 14:15:30;;;;;;;0.80;0.75;;;;;;;;;;5051929;28;20017;-81
2022/06/21 14:18:04;;;;;;;2.10;1.30;;;;;;;;;;5034392;28;20021;-78
2022/06/21 14:20:53;;;;;;;1.23;0.95;;;;;;;;;;5056856;28;20020;-83
2022/06/21 14:23:21;;;;;;;5.75;1.67;;;;;;;;;;5018313;28;20033;-85
2022/06/21 14:25:46;;;;;;;2.75;1.00;;;;;;;;;;5054530;28;20024;-86
2022/06/21 14:28:12;;;;;;;1.60;1.23;;;;;;;;;;5054058;28;20052;-85
2022/06/21 14:30:51;;;;;;;1.27;1.17;;;;;;;;;;5054508;28;20025;-84
2022/06/21 14:33:24;;;;;;;1.45;0.90;;;;;;;;;;5054399;28;20087;-83
2022/06/21 14:35:52;;;;;;;1.45;0.80;;;;;;;;;;5035094;28;20052;-80
2022/06/21 14:38:22;;;;;;;4.07;0.93;;;;;;;;;;5053190;28;20064;-81
2022/06/21 14:40:54;;;;;;;3.03;1.00;;;;;;;;;;5053064;28;20025;-81
2022/06/21 14:43:34;;;;;;;6.88;1.50;;;;;;;;;;5035661;28;20107;-80
2022/06/21 14:46:18;;;;;;;1.70;1.00;;;;;;;;;;5035431;28;20094;-80
2022/06/21 14:49:02;;;;;;;2.75;1.10;;;;;;;;;;5053451;28;20032;-81
2022/06/21 14:51:36;;;;;;;3.75;1.00;;;;;;;;;;5035043;28;20022;-80
2022/06/21 14:54:07;;;;;;;2.92;1.05;;;;;;;;;;5051867;28;20029;-81
2022/06/21 14:56:41;;;;;;;3.83;0.90;;;;;;;;;;5055765;28;20021;-81
2022/06/21 14:59:10;;;;;;;2.53;1.08;;;;;;;;;;5057098;28;20082;-80
2022/06/21 15:01:49;;;;;;;3.42;0.90;;;;;;;;;;5057248;28;20032;-81
2022/06/21 15:04:17;;;;;;;1.95;1.00;;;;;;;;;;5038989;28;20116;-80
2022/06/21 15:06:43;;;;;;;1.17;0.85;;;;;;;;;;5057034;28;20021;-80
2022/06/21 15:09:11;;;;;;;3.28;1.00;;;;;;;;;;5056905;28;20047;-80
2022/06/21 15:11:59;;;;;;;1.20;0.95;;;;;;;;;;5056747;28;20082;-80
2022/06/21 15:14:38;;;;;;;2.40;0.57;;;;;;;;;;5057043;28;20024;-79
2022/06/21 15:17:14;;;;;;;1.83;1.30;;;;;;;;;;5056618;28;20028;-80
2022/06/21 15:19:54;;;;;;;3.40;1.77;;;;;;;;;;5038915;28;20032;-81
2022/06/21 15:22:29;;;;;;;1.85;1.05;;;;;;;;;;5056368;28;20024;-79
2022/06/21 15:25:05;;;;;;;2.42;1.52;;;;;;;;;;5056277;28;20024;-81
2022/06/21 15:27:33;;;;;;;1.20;1.10;;;;;;;;;;5056250;28;20381;-80
2022/06/21 15:29:59;;;;;;;0.75;0.70;;;;;;;;;;5019408;28;20045;-80
2022/06/21 15:32:28;;;;;;;2.05;0.75;;;;;;;;;;5031116;28;20028;-79
2022/06/21 15:35:04;;;;;;;1.67;0.60;;;;;;;;;;5022381;28;20029;-79
2022/06/21 15:37:33;;;;;;;1.17;0.80;;;;;;;;;;5035014;28;20025;-77
2022/06/21 15:40:13;;;;;;;5.25;0.75;;;;;;;;;;5056096;28;20025;-79
2022/06/21 15:42:44;;;;;;;1.65;1.02;;;;;;;;;;5038684;28;20028;-81
2022/06/21 15:45:16;;;;;;;1.95;0.80;;;;;;;;;;5038834;28;20027;-82
2022/06/21 15:50:47;;;;;;;1.67;0.90;;;;;;;;;;5042594;28;20064;-78
2022/06/21 15:53:12;;;;;;;3.05;1.10;;;;;;;;;;4997844;28;20030;-79
2022/06/21 15:55:45;;;;;;;1.65;0.77;;;;;;;;;;5016580;28;20032;-79
2022/06/21 15:58:14;;;;;;;1.70;0.80;;;;;;;;;;5015871;28;20025;-78
2022/06/21 16:00:58;;;;;;;2.33;1.38;;;;;;;;;;5016276;28;20030;-79
2022/06/21 16:06:03;;;;;;;1.63;0.57;;;;;;;;;;5022796;28;20571;-79
2022/06/21 16:08:36;;;;;;;3.45;0.90;;;;;;;;;;5036657;28;20089;-79
2022/06/21 16:11:13;;;;;;;2.17;0.80;;;;;;;;;;5025277;28;20014;-79
2022/06/21 16:13:41;;;;;;;1.40;1.30;;;;;;;;;;4997208;28;20033;-79
2022/06/21 16:16:23;;;;;;;1.02;0.90;;;;;;;;;;5025803;28;20018;-81
2022/06/21 16:18:49;;;;;;;;;;;;;;;;;;5016115;28;20472;-78
2022/06/21 16:21:19;;;;;;;0.70;0.70;;;;;;;;;;5015980;28;19906;-82
2022/06/21 16:23:48;;;;;;;2.78;1.20;;;;;;;;;;5015613;28;20355;-79
2022/06/21 16:26:18;;;;;;;2.78;0.90;;;;;;;;;;4981628;28;20165;-76
2022/06/21 16:28:53;;;;;;;1.08;0.68;;;;;;;;;;5015531;28;20088;-79
2022/06/21 16:34:27;;;;;;;0.80;0.80;;;;;;;;;;5015863;28;20062;-76
2022/06/21 16:36:59;;;;;;;1.15;1.00;;;;;;;;;;5015584;28;20096;-78
2022/06/21 16:39:25;;;;;;;2.53;0.90;;;;;;;;;;5015599;28;20026;-79
2022/06/21 16:45:04;;;;;;;1.42;0.80;;;;;;;;;;5011338;28;20072;-77
2022/06/21 16:47:41;;;;;;;0.70;0.70;;;;;;;;;;4997612;28;20072;-78
2022/06/21 16:50:29;;;;;;;1.38;1.05;;;;;;;;;;5015861;28;20057;-77
2022/06/21 16:53:13;;;;;;;1.40;0.60;;;;;;;;;;5015188;28;20021;-75
2022/06/21 16:55:50;;;;;;;0.77;0.77;;;;;;;;;;5025665;28;20468;-77
2022/06/21 16:58:16;;;;;;;3.67;0.82;;;;;;;;;;4971990;28;20279;-77
2022/06/21 17:00:47;;;;;;;4.70;1.02;;;;;;;;;;4995354;28;20030;-77
2022/06/21 17:03:13;;;;;;;;;;;;;;;;;;4977843;28;20018;-75
2022/06/21 17:05:49;;;;;;;2.93;1.33;;;;;;;;;;4993589;28;19928;-81
2022/06/21 17:08:38;;;;;;;0.82;0.50;;;;;;;;;;4995209;28;20025;-77
2022/06/21 17:11:26;;;;;;;1.58;0.70;;;;;;;;;;5001985;28;20022;-80
2022/06/21 17:14:00;;;;;;;1.08;0.98;;;;;;;;;;4997110;28;20036;-79
2022/06/21 17:16:29;;;;;;;1.00;0.80;;;;;;;;;;5014159;28;20069;-77
2022/06/21 17:18:58;;;;;;;2.30;0.73;;;;;;;;;;5016943;28;20014;-78
2022/06/21 17:21:40;;;;;;;1.92;0.73;;;;;;;;;;5014608;28;20101;-79
2022/06/21 17:24:27;;;;;;;1.25;0.90;;;;;;;;;;5014859;28;20037;-79
2022/06/21 17:26:56;;;;;;;2.38;0.65;;;;;;;;;;5014128;28;20049;-79
2022/06/21 17:30:00;;;;;;;1.13;0.80;;;;;;;;;;5014166;28;20490;-76
2022/06/21 17:32:32;;;;;;;0.82;0.82;;;;;;;;;;4950090;28;20066;-77
2022/06/21 17:35:10;;;;;;;1.42;0.70;;;;;;;;;;4949288;29;20039;-77
2022/06/21 17:37:36;;;;;;;1.48;0.70;;;;;;;;;;4951292;29;20023;-78
2022/06/21 17:40:13;;;;;;;0.80;0.70;;;;;;;;;;4963949;28;20032;-76
2022/06/21 17:42:47;;;;;;;1.05;0.70;;;;;;;;;;5026694;28;20049;-78
2022/06/21 17:45:21;;;;;;;1.30;0.70;;;;;;;;;;5013911;28;20092;-77